Time;durP1;ratioP1;P1;durP2;ratioP2;P2;SDS_P1;SDS_P2;PMS_P1;PMS_P2;Temp;Humidity;BMP_temperature;BMP_pressure;BME280_temperature;BME280_humidity;BME280_pressure;Samples;Min_cycle;Max_cycle;Signal;HPM_P1;HPM_P2
2023/03/09 00:01:24;;;;;;;6.27;5.43;;;1.50;99.90;;;;;;4983143;28;20496;-66
2023/03/09 00:03:52;;;;;;;6.37;5.53;;;1.50;99.90;;;;;;4986757;28;21007;-67
2023/03/09 00:06:20;;;;;;;6.77;6.10;;;1.50;99.90;;;;;;4976571;28;20562;-66
2023/03/09 00:08:50;;;;;;;7.50;5.73;;;1.50;99.90;;;;;;4980693;28;20503;-66
2023/03/09 00:11:18;;;;;;;5.33;4.77;;;1.50;99.90;;;;;;4977757;28;20503;-66
2023/03/09 00:13:49;;;;;;;5.40;4.60;;;1.50;99.90;;;;;;4983490;28;20486;-66
2023/03/09 00:16:19;;;;;;;6.27;5.00;;;1.50;99.90;;;;;;4990236;28;20542;-66
2023/03/09 00:18:47;;;;;;;7.00;6.00;;;1.50;99.90;;;;;;4988589;28;20500;-67
2023/03/09 00:21:29;;;;;;;6.17;4.80;;;1.50;99.90;;;;;;4983081;28;20487;-67
2023/03/09 00:23:58;;;;;;;5.07;4.57;;;1.50;99.90;;;;;;4986924;28;21020;-67
2023/03/09 00:26:26;;;;;;;8.20;5.10;;;1.50;99.90;;;;;;4989325;28;21096;-67
2023/03/09 00:28:54;;;;;;;6.03;5.40;;;1.50;99.90;;;;;;4978134;28;20504;-67
2023/03/09 00:31:22;;;;;;;8.70;5.73;;;1.50;99.90;;;;;;4980427;28;20488;-67
2023/03/09 00:33:50;;;;;;;5.40;4.90;;;1.50;99.90;;;;;;4985073;28;20702;-67
2023/03/09 00:36:19;;;;;;;8.20;5.67;;;1.50;99.90;;;;;;4983908;28;20481;-66
2023/03/09 00:38:51;;;;;;;8.73;5.50;;;1.50;99.90;;;;;;4994590;28;20867;-66
2023/03/09 00:41:22;;;;;;;5.23;4.63;;;1.50;99.90;;;;;;4988410;28;21250;-66
2023/03/09 00:43:52;;;;;;;4.93;4.50;;;1.50;99.90;;;;;;4998474;28;20461;-67
2023/03/09 00:46:20;;;;;;;5.37;4.87;;;1.40;99.90;;;;;;4989111;28;22304;-67
2023/03/09 00:48:48;;;;;;;5.50;5.00;;;1.40;99.90;;;;;;4996912;28;20852;-67
2023/03/09 00:51:15;;;;;;;6.13;5.13;;;1.40;99.90;;;;;;4993701;28;20503;-67
2023/03/09 00:53:44;;;;;;;5.60;5.10;;;1.40;99.90;;;;;;4994037;28;20504;-67
2023/03/09 00:56:16;;;;;;;6.30;5.00;;;1.40;99.90;;;;;;4993206;28;20475;-66
2023/03/09 00:58:45;;;;;;;5.17;4.67;;;1.40;99.90;;;;;;4994473;28;20502;-67
2023/03/09 01:01:15;;;;;;;6.03;4.93;;;1.40;99.90;;;;;;4990041;28;20841;-67
2023/03/09 01:03:43;;;;;;;7.60;4.97;;;1.30;99.90;;;;;;4993302;28;20985;-66
2023/03/09 01:06:12;;;;;;;5.70;4.97;;;1.30;99.90;;;;;;4993619;28;20473;-67
2023/03/09 01:08:40;;;;;;;6.10;5.23;;;1.30;99.90;;;;;;4986597;28;21573;-66
2023/03/09 01:11:09;;;;;;;6.03;5.43;;;1.30;99.90;;;;;;4993850;28;20498;-67
2023/03/09 01:13:37;;;;;;;6.70;5.10;;;1.30;99.90;;;;;;4994460;28;20514;-66
2023/03/09 01:16:08;;;;;;;6.27;5.67;;;1.30;99.90;;;;;;4991558;28;20476;-67
2023/03/09 01:18:36;;;;;;;5.00;4.50;;;1.20;99.90;;;;;;4995423;28;20519;-66
2023/03/09 01:21:05;;;;;;;7.00;5.80;;;1.20;99.90;;;;;;4996456;28;20492;-66
2023/03/09 01:23:32;;;;;;;5.60;5.10;;;1.20;99.90;;;;;;4997424;28;20465;-66
2023/03/09 01:26:00;;;;;;;6.60;5.17;;;1.20;99.90;;;;;;4998217;28;20472;-66
2023/03/09 01:28:28;;;;;;;6.30;5.10;;;1.10;99.90;;;;;;4993337;28;20492;-66
2023/03/09 01:30:56;;;;;;;6.10;5.20;;;1.10;99.90;;;;;;4994925;28;20485;-67
2023/03/09 01:33:26;;;;;;;6.00;5.17;;;1.10;99.90;;;;;;4995446;28;20484;-66
2023/03/09 01:35:54;;;;;;;6.60;5.50;;;1.00;99.90;;;;;;4997238;28;20476;-66
2023/03/09 01:38:22;;;;;;;5.27;4.70;;;1.10;99.90;;;;;;4995979;28;20496;-67
2023/03/09 01:40:49;;;;;;;5.60;4.97;;;1.00;99.90;;;;;;4989419;28;20485;-67
2023/03/09 01:43:31;;;;;;;5.37;4.70;;;1.00;99.90;;;;;;4996114;28;20465;-66
2023/03/09 01:46:38;;;;;;;5.57;5.07;;;1.00;99.90;;;;;;4995026;28;20993;-67
2023/03/09 01:49:15;;;;;;;5.87;4.97;;;1.00;99.90;;;;;;4995088;28;21042;-67
2023/03/09 01:51:48;;;;;;;5.90;5.30;;;0.90;99.90;;;;;;4999326;28;20499;-67
2023/03/09 01:54:22;;;;;;;5.90;4.97;;;1.00;99.90;;;;;;4999946;28;21015;-67
2023/03/09 01:56:54;;;;;;;5.90;5.07;;;0.90;99.90;;;;;;4987124;28;21063;-67
2023/03/09 01:59:25;;;;;;;7.53;4.80;;;0.90;99.90;;;;;;4988484;28;20589;-67
2023/03/09 02:01:53;;;;;;;5.77;5.23;;;0.90;99.90;;;;;;4993162;28;20680;-68
2023/03/09 02:04:28;;;;;;;6.67;5.17;;;0.90;99.90;;;;;;4998575;28;20495;-68
2023/03/09 02:06:56;;;;;;;6.23;5.07;;;0.80;99.90;;;;;;4993900;28;20474;-66
2023/03/09 02:09:29;;;;;;;6.00;5.13;;;0.80;99.90;;;;;;4997546;28;20598;-68
2023/03/09 02:11:59;;;;;;;5.80;5.20;;;0.80;99.90;;;;;;4997194;28;20500;-66
2023/03/09 02:14:28;;;;;;;5.20;4.70;;;0.80;99.90;;;;;;4989492;28;20495;-67
2023/03/09 02:16:56;;;;;;;5.90;5.30;;;0.80;99.90;;;;;;4996200;28;20996;-67
2023/03/09 02:19:37;;;;;;;5.53;5.03;;;0.80;99.90;;;;;;4992439;28;20498;-67
2023/03/09 02:22:05;;;;;;;6.20;5.37;;;0.80;99.90;;;;;;4990612;28;20830;-68
2023/03/09 02:24:43;;;;;;;6.00;5.40;;;0.90;99.90;;;;;;4995931;28;20507;-68
2023/03/09 02:27:17;;;;;;;5.63;5.13;;;0.80;99.90;;;;;;4990164;28;20502;-67
2023/03/09 02:29:45;;;;;;;7.30;5.20;;;0.90;99.90;;;;;;4985688;28;21035;-68
2023/03/09 02:32:13;;;;;;;9.00;6.00;;;0.90;99.90;;;;;;4989454;28;20876;-67
2023/03/09 02:34:41;;;;;;;5.40;4.90;;;0.90;99.90;;;;;;4981021;28;21202;-68
2023/03/09 02:37:35;;;;;;;6.63;5.43;;;0.90;99.90;;;;;;4987901;28;20483;-67
2023/03/09 02:40:11;;;;;;;5.40;4.90;;;0.90;99.90;;;;;;4971762;28;20863;-68
2023/03/09 02:42:41;;;;;;;5.53;5.00;;;0.90;99.90;;;;;;4992257;28;20479;-69
2023/03/09 02:45:11;;;;;;;5.40;4.90;;;0.90;99.90;;;;;;4988374;28;20526;-67
2023/03/09 02:47:39;;;;;;;6.00;5.00;;;0.90;99.90;;;;;;4993193;28;20468;-67
2023/03/09 02:50:09;;;;;;;6.90;5.73;;;0.90;99.90;;;;;;4987403;28;20493;-67
2023/03/09 02:52:37;;;;;;;7.80;5.20;;;0.90;99.90;;;;;;4986231;28;20496;-68
2023/03/09 02:55:06;;;;;;;5.37;4.87;;;0.90;99.90;;;;;;4982605;28;20511;-67
2023/03/09 02:57:35;;;;;;;5.57;5.07;;;0.90;99.90;;;;;;4993921;28;20476;-68
2023/03/09 03:00:08;;;;;;;6.60;5.60;;;0.90;99.90;;;;;;5001432;28;21025;-68
2023/03/09 03:02:36;;;;;;;6.53;5.50;;;0.90;99.90;;;;;;5000223;28;20530;-67
2023/03/09 03:05:05;;;;;;;6.23;5.60;;;0.90;99.90;;;;;;5000990;28;20469;-68
2023/03/09 03:07:33;;;;;;;6.20;5.30;;;0.90;99.90;;;;;;5001228;28;20465;-69
2023/03/09 03:10:01;;;;;;;6.00;5.40;;;0.90;99.90;;;;;;4997393;28;20562;-68
2023/03/09 03:12:29;;;;;;;6.00;5.40;;;0.90;99.90;;;;;;5000806;28;21011;-68
2023/03/09 03:14:57;;;;;;;6.10;5.17;;;0.90;99.90;;;;;;5001702;28;20499;-68
2023/03/09 03:17:26;;;;;;;5.57;4.50;;;0.90;99.90;;;;;;5001090;28;20981;-68
2023/03/09 03:19:54;;;;;;;6.50;5.80;;;0.90;99.90;;;;;;5000212;28;20491;-68
2023/03/09 03:22:22;;;;;;;5.93;5.13;;;0.90;99.90;;;;;;5002210;28;20530;-66
2023/03/09 03:24:51;;;;;;;10.53;5.83;;;0.90;99.90;;;;;;5004250;28;20477;-66
2023/03/09 03:27:19;;;;;;;6.70;5.37;;;0.90;99.90;;;;;;5000874;28;20484;-67
2023/03/09 03:29:46;;;;;;;6.40;5.37;;;0.90;99.90;;;;;;5001529;28;20505;-66
2023/03/09 03:32:14;;;;;;;7.63;6.10;;;0.90;99.90;;;;;;5000716;28;20488;-67
2023/03/09 03:34:44;;;;;;;6.37;5.77;;;0.90;99.90;;;;;;5001850;28;20501;-67
2023/03/09 03:37:13;;;;;;;6.60;5.83;;;0.90;99.90;;;;;;5000238;28;20480;-67
2023/03/09 03:39:41;;;;;;;6.43;5.60;;;0.90;99.90;;;;;;5001912;28;20499;-67
2023/03/09 03:42:09;;;;;;;7.87;6.00;;;0.90;99.90;;;;;;5000771;28;20488;-67
2023/03/09 03:44:37;;;;;;;6.17;5.30;;;0.90;99.90;;;;;;5002029;28;20469;-67
2023/03/09 03:47:05;;;;;;;9.00;6.20;;;0.80;99.90;;;;;;4999706;28;20834;-67
2023/03/09 03:49:34;;;;;;;6.03;5.20;;;0.80;99.90;;;;;;5002071;28;20488;-68
2023/03/09 03:52:03;;;;;;;6.00;5.40;;;0.80;99.90;;;;;;4998142;28;20488;-68
2023/03/09 03:54:31;;;;;;;5.87;5.27;;;0.80;99.90;;;;;;4996831;28;20500;-67
2023/03/09 03:56:59;;;;;;;6.60;5.50;;;0.80;99.90;;;;;;5000752;28;20472;-67
2023/03/09 03:59:27;;;;;;;7.60;5.93;;;0.90;99.90;;;;;;5001453;28;20500;-67
2023/03/09 04:01:55;;;;;;;6.57;5.67;;;0.90;99.90;;;;;;4998730;28;20500;-67
2023/03/09 04:04:23;;;;;;;6.47;5.63;;;0.90;99.90;;;;;;4999425;28;20499;-67
2023/03/09 04:06:51;;;;;;;6.90;6.13;;;0.90;99.90;;;;;;5002040;28;20469;-67
2023/03/09 04:09:20;;;;;;;7.33;5.80;;;0.90;99.90;;;;;;4998793;28;20491;-67
2023/03/09 04:11:49;;;;;;;7.67;6.37;;;0.90;99.90;;;;;;4999015;28;20504;-68
2023/03/09 04:14:17;;;;;;;6.77;6.10;;;0.90;99.90;;;;;;5000689;28;20492;-67
2023/03/09 04:16:45;;;;;;;7.27;6.00;;;0.90;99.90;;;;;;5001719;28;20486;-67
2023/03/09 04:19:13;;;;;;;6.70;6.00;;;0.80;99.90;;;;;;4999992;28;20539;-67
2023/03/09 04:21:41;;;;;;;10.30;6.20;;;0.80;99.90;;;;;;5000145;28;20476;-67
2023/03/09 04:24:09;;;;;;;8.23;6.60;;;0.80;99.90;;;;;;5001219;28;20492;-67
2023/03/09 04:26:38;;;;;;;8.87;6.27;;;0.80;99.90;;;;;;4999720;28;20484;-67
2023/03/09 04:29:06;;;;;;;8.40;6.53;;;0.80;99.90;;;;;;5001294;28;20500;-68
2023/03/09 04:31:34;;;;;;;8.43;6.97;;;0.90;99.90;;;;;;5000330;28;20484;-68
2023/03/09 04:34:02;;;;;;;9.37;6.70;;;0.90;99.90;;;;;;4996374;28;20500;-68
2023/03/09 04:36:30;;;;;;;8.23;6.77;;;0.90;99.90;;;;;;5000277;28;20472;-68
2023/03/09 04:38:58;;;;;;;8.57;6.67;;;0.90;99.90;;;;;;5000686;28;20499;-68
2023/03/09 04:41:26;;;;;;;8.17;6.60;;;0.90;99.90;;;;;;4997319;28;20485;-68
2023/03/09 04:43:55;;;;;;;9.20;6.67;;;0.90;99.90;;;;;;4998840;28;20481;-68
2023/03/09 04:46:24;;;;;;;8.17;6.97;;;0.90;99.90;;;;;;4998839;28;21031;-67
2023/03/09 04:48:51;;;;;;;10.30;6.80;;;0.90;99.90;;;;;;4999203;28;20493;-68
2023/03/09 04:51:20;;;;;;;8.80;6.97;;;0.80;99.90;;;;;;4998140;28;20524;-69
2023/03/09 04:53:47;;;;;;;8.73;6.83;;;0.80;99.90;;;;;;5001230;28;20479;-69
2023/03/09 04:56:18;;;;;;;8.30;6.80;;;0.80;99.90;;;;;;5001725;28;20520;-68
2023/03/09 04:58:46;;;;;;;8.60;7.13;;;0.90;99.90;;;;;;4999175;28;21020;-68
2023/03/09 05:01:16;;;;;;;9.20;6.77;;;0.90;99.90;;;;;;4997720;28;20484;-69
2023/03/09 05:03:44;;;;;;;9.43;6.77;;;0.90;99.90;;;;;;5001061;28;20961;-68
2023/03/09 05:06:12;;;;;;;7.40;6.60;;;0.90;99.90;;;;;;4997391;28;20476;-68
2023/03/09 05:08:40;;;;;;;8.27;7.43;;;0.90;99.90;;;;;;4998437;28;20481;-68
2023/03/09 05:11:08;;;;;;;8.00;7.20;;;0.90;99.90;;;;;;4999105;28;20565;-68
2023/03/09 05:13:35;;;;;;;8.90;6.57;;;0.80;99.90;;;;;;5000503;28;20491;-67
2023/03/09 05:16:07;;;;;;;7.97;6.73;;;0.90;99.90;;;;;;4995294;28;20503;-68
2023/03/09 05:18:37;;;;;;;8.70;7.27;;;0.90;99.90;;;;;;4999999;28;21079;-67
2023/03/09 05:21:06;;;;;;;9.17;6.70;;;0.90;99.90;;;;;;4998179;28;20476;-66
2023/03/09 05:23:34;;;;;;;8.20;7.07;;;0.80;99.90;;;;;;4999927;28;20480;-68
2023/03/09 05:26:07;;;;;;;9.27;7.50;;;0.90;99.90;;;;;;5007619;28;20473;-67
2023/03/09 05:28:35;;;;;;;9.73;7.73;;;0.90;99.90;;;;;;5006903;28;20499;-68
2023/03/09 05:31:04;;;;;;;7.97;7.17;;;0.90;99.90;;;;;;5004919;28;20510;-69
2023/03/09 05:33:32;;;;;;;9.33;7.80;;;0.90;99.90;;;;;;5005468;28;20468;-69
2023/03/09 05:36:01;;;;;;;8.47;7.40;;;0.90;99.90;;;;;;5006903;28;20488;-68
2023/03/09 05:38:29;;;;;;;11.10;7.47;;;0.90;99.90;;;;;;5004682;28;20503;-68
2023/03/09 05:40:57;;;;;;;9.37;7.63;;;0.90;99.90;;;;;;5006305;28;20488;-67
2023/03/09 05:43:25;;;;;;;9.50;7.20;;;0.90;99.90;;;;;;4999414;28;20461;-68
2023/03/09 05:45:56;;;;;;;9.13;7.57;;;0.80;99.90;;;;;;5006267;28;20851;-69
2023/03/09 05:48:24;;;;;;;9.40;7.40;;;0.80;99.90;;;;;;5003559;28;21495;-67
2023/03/09 05:50:52;;;;;;;10.30;7.73;;;0.80;99.90;;;;;;5003230;28;20484;-67
2023/03/09 05:53:21;;;;;;;9.90;8.60;;;0.80;99.90;;;;;;5006440;28;20495;-67
2023/03/09 05:55:52;;;;;;;11.50;7.70;;;0.80;99.90;;;;;;5006498;28;20860;-68
2023/03/09 05:58:20;;;;;;;10.73;8.37;;;0.80;99.90;;;;;;5003949;28;20499;-67
2023/03/09 06:00:48;;;;;;;10.40;8.10;;;0.80;99.90;;;;;;5004994;28;20480;-67
2023/03/09 06:03:16;;;;;;;10.00;8.27;;;0.80;99.90;;;;;;5007094;28;20480;-68
2023/03/09 06:05:44;;;;;;;10.37;8.17;;;0.80;99.90;;;;;;5006360;28;20837;-67
2023/03/09 06:08:12;;;;;;;8.77;7.10;;;0.80;99.90;;;;;;5004465;28;20488;-67
2023/03/09 06:10:42;;;;;;;10.93;7.40;;;0.70;99.90;;;;;;5004670;28;20989;-68
2023/03/09 06:13:10;;;;;;;8.83;7.57;;;0.70;99.90;;;;;;5004900;28;20465;-67
2023/03/09 06:15:38;;;;;;;8.63;7.53;;;0.70;99.90;;;;;;5005933;28;21008;-68
2023/03/09 06:18:06;;;;;;;8.53;7.30;;;0.70;99.90;;;;;;5006418;28;20476;-68
2023/03/09 06:20:34;;;;;;;9.80;8.03;;;0.70;99.90;;;;;;5000871;28;20476;-67
2023/03/09 06:23:03;;;;;;;9.60;8.40;;;0.70;99.90;;;;;;5003398;28;20469;-68
2023/03/09 06:25:31;;;;;;;12.17;7.83;;;0.70;99.90;;;;;;5006026;28;20472;-68
2023/03/09 06:28:00;;;;;;;9.27;7.70;;;0.70;99.90;;;;;;5005167;28;21072;-68
2023/03/09 06:30:28;;;;;;;8.60;7.70;;;0.70;99.90;;;;;;5004137;28;20476;-68
2023/03/09 06:32:57;;;;;;;10.60;8.00;;;0.70;99.90;;;;;;5005358;28;20473;-68
2023/03/09 06:35:25;;;;;;;9.63;7.93;;;0.70;99.90;;;;;;5003717;28;20496;-67
2023/03/09 06:37:53;;;;;;;10.17;7.90;;;0.70;99.90;;;;;;4999898;28;20546;-68
2023/03/09 06:40:21;;;;;;;9.77;7.90;;;0.70;99.90;;;;;;5001854;28;21047;-67
2023/03/09 06:42:49;;;;;;;11.80;8.20;;;0.70;99.90;;;;;;5003182;28;20473;-68
2023/03/09 06:45:20;;;;;;;11.67;8.43;;;0.70;99.90;;;;;;5000759;28;20981;-69
2023/03/09 06:47:48;;;;;;;11.57;8.90;;;0.70;99.90;;;;;;5003770;28;20974;-68
2023/03/09 06:50:16;;;;;;;9.10;7.40;;;0.80;99.90;;;;;;5004661;28;20860;-68
2023/03/09 06:52:44;;;;;;;10.37;8.30;;;0.80;99.90;;;;;;5002555;28;21047;-68
2023/03/09 06:55:12;;;;;;;12.80;8.00;;;0.90;99.90;;;;;;5003732;28;20476;-67
2023/03/09 06:57:43;;;;;;;10.70;8.30;;;0.90;99.90;;;;;;5004010;28;20966;-67
2023/03/09 07:00:13;;;;;;;11.77;9.00;;;0.90;99.90;;;;;;5005025;28;20840;-66
2023/03/09 07:02:42;;;;;;;10.13;7.83;;;0.90;99.90;;;;;;5003197;28;20491;-68
2023/03/09 07:05:10;;;;;;;12.07;8.93;;;1.00;99.90;;;;;;5003188;28;20503;-67
2023/03/09 07:07:39;;;;;;;11.10;8.13;;;1.00;99.90;;;;;;4998706;28;20585;-67
2023/03/09 07:10:07;;;;;;;10.50;9.00;;;1.00;99.90;;;;;;5002535;28;20511;-67
2023/03/09 07:12:35;;;;;;;10.77;8.93;;;1.00;99.90;;;;;;5001677;28;20496;-68
2023/03/09 07:15:04;;;;;;;11.90;9.37;;;1.10;99.90;;;;;;5001902;28;20523;-68
2023/03/09 07:17:32;;;;;;;12.43;9.90;;;1.10;99.90;;;;;;5002224;28;20491;-68
2023/03/09 07:20:01;;;;;;;10.33;8.90;;;1.10;99.90;;;;;;5001094;28;20489;-68
2023/03/09 07:22:30;;;;;;;11.37;8.70;;;1.20;99.90;;;;;;5001848;28;20471;-67
2023/03/09 07:24:58;;;;;;;11.90;9.53;;;1.20;99.90;;;;;;5001448;28;20472;-68
2023/03/09 07:27:26;;;;;;;14.50;9.80;;;1.30;99.90;;;;;;5002479;28;20495;-67
2023/03/09 07:29:54;;;;;;;14.27;8.97;;;1.30;99.90;;;;;;5002326;28;20492;-67
2023/03/09 07:32:21;;;;;;;11.27;8.93;;;1.30;99.90;;;;;;5000803;28;21151;-68
2023/03/09 07:34:50;;;;;;;11.60;8.60;;;1.40;99.90;;;;;;5001040;28;20557;-68
2023/03/09 07:37:19;;;;;;;12.20;9.23;;;1.40;99.90;;;;;;5003385;28;20883;-67
2023/03/09 07:39:47;;;;;;;12.20;9.03;;;1.40;99.90;;;;;;4995998;28;20500;-66
2023/03/09 07:42:15;;;;;;;12.77;8.90;;;1.50;99.90;;;;;;5002668;28;20477;-68
2023/03/09 07:45:03;;;;;;;10.93;9.03;;;1.50;99.90;;;;;;5001496;28;20857;-68
2023/03/09 07:47:32;;;;;;;12.87;9.47;;;1.60;99.90;;;;;;5001315;28;20962;-67
2023/03/09 07:50:00;;;;;;;11.70;9.63;;;1.60;99.90;;;;;;5001534;28;20568;-67
2023/03/09 07:52:31;;;;;;;12.90;9.97;;;1.70;99.90;;;;;;4999471;28;20492;-67
2023/03/09 07:55:00;;;;;;;12.03;9.67;;;1.70;99.90;;;;;;5001470;28;20480;-67
2023/03/09 07:57:31;;;;;;;11.83;9.83;;;1.70;99.90;;;;;;5000031;28;20503;-66
2023/03/09 08:00:00;;;;;;;11.23;9.60;;;1.80;99.90;;;;;;5000743;28;20493;-67
2023/03/09 08:02:28;;;;;;;14.07;10.13;;;1.80;99.90;;;;;;4998689;28;20480;-67
2023/03/09 08:04:56;;;;;;;14.10;9.73;;;1.90;99.90;;;;;;5001421;28;20473;-66
2023/03/09 08:07:24;;;;;;;11.50;9.20;;;1.90;99.90;;;;;;5001128;28;20986;-66
2023/03/09 08:09:53;;;;;;;12.03;9.97;;;2.00;99.90;;;;;;4996661;28;20496;-66
2023/03/09 08:12:21;;;;;;;12.17;10.37;;;2.00;99.90;;;;;;5000982;28;20482;-67
2023/03/09 08:14:49;;;;;;;13.63;9.53;;;2.10;99.90;;;;;;5000322;28;20473;-67
2023/03/09 08:17:17;;;;;;;10.63;8.40;;;2.10;99.90;;;;;;4998535;28;20495;-66
2023/03/09 08:19:45;;;;;;;14.17;9.70;;;2.10;99.90;;;;;;5001963;28;21050;-66
2023/03/09 08:22:13;;;;;;;13.13;9.10;;;2.20;99.90;;;;;;5002102;28;20496;-66
2023/03/09 08:24:41;;;;;;;12.10;8.97;;;2.20;99.90;;;;;;5000895;28;20507;-67
2023/03/09 08:27:10;;;;;;;11.07;8.87;;;2.30;99.90;;;;;;5001097;28;20992;-66
2023/03/09 08:29:38;;;;;;;11.60;9.10;;;2.40;99.90;;;;;;5000465;28;20493;-67
2023/03/09 08:32:07;;;;;;;11.37;9.10;;;2.50;99.90;;;;;;4998234;28;20484;-67
2023/03/09 08:34:39;;;;;;;11.57;9.30;;;2.50;99.90;;;;;;4999688;28;20642;-68
2023/03/09 08:37:07;;;;;;;12.63;9.57;;;2.50;99.90;;;;;;5001141;28;20843;-68
2023/03/09 08:39:35;;;;;;;11.60;9.23;;;2.60;99.90;;;;;;5000339;28;20488;-68
2023/03/09 08:42:04;;;;;;;12.77;9.20;;;2.70;99.90;;;;;;4992121;28;20578;-68
2023/03/09 08:44:34;;;;;;;13.37;8.90;;;2.70;99.90;;;;;;4998492;28;20955;-69
2023/03/09 08:47:02;;;;;;;11.40;8.23;;;2.70;99.90;;;;;;4999304;28;20472;-68
2023/03/09 08:49:30;;;;;;;9.17;7.80;;;2.80;99.90;;;;;;4996972;28;20496;-68
2023/03/09 08:51:58;;;;;;;9.67;8.47;;;2.80;99.90;;;;;;4997627;28;20954;-69
2023/03/09 08:54:26;;;;;;;10.80;8.47;;;2.80;99.90;;;;;;4999175;28;20487;-68
2023/03/09 08:56:54;;;;;;;13.83;8.87;;;2.80;99.90;;;;;;4999998;28;20512;-68
2023/03/09 08:59:22;;;;;;;8.50;7.60;;;2.90;99.90;;;;;;4998949;28;20492;-68
2023/03/09 09:01:51;;;;;;;9.10;7.70;;;2.90;99.90;;;;;;4998006;28;20989;-69
2023/03/09 09:04:19;;;;;;;10.57;8.00;;;3.00;99.90;;;;;;4999687;28;20509;-68
2023/03/09 09:06:47;;;;;;;11.07;8.50;;;3.10;99.90;;;;;;5000316;28;20468;-68
2023/03/09 09:09:15;;;;;;;8.50;7.53;;;3.20;99.90;;;;;;4996034;28;20489;-68
2023/03/09 09:11:43;;;;;;;11.33;7.70;;;3.20;99.90;;;;;;4997406;28;20481;-68
2023/03/09 09:14:11;;;;;;;9.00;7.30;;;3.30;99.90;;;;;;4997955;28;20817;-68
2023/03/09 09:16:39;;;;;;;8.07;6.60;;;3.30;99.90;;;;;;4999546;28;20496;-68
2023/03/09 09:19:09;;;;;;;8.27;7.13;;;3.40;99.90;;;;;;4999352;28;20484;-68
2023/03/09 09:21:37;;;;;;;8.77;7.50;;;3.50;99.90;;;;;;4997227;28;20484;-68
2023/03/09 09:24:06;;;;;;;7.50;6.80;;;3.60;99.90;;;;;;4998929;28;20464;-68
2023/03/09 09:26:34;;;;;;;8.27;6.33;;;3.70;99.90;;;;;;4999275;28;20503;-68
2023/03/09 09:29:04;;;;;;;8.37;6.83;;;3.80;99.90;;;;;;4999467;28;20492;-68
2023/03/09 09:31:33;;;;;;;8.33;6.50;;;3.80;99.90;;;;;;4996449;28;21010;-68
2023/03/09 09:34:01;;;;;;;8.13;6.60;;;3.90;99.90;;;;;;5000063;28;20516;-69
2023/03/09 09:36:30;;;;;;;7.90;6.73;;;4.00;99.90;;;;;;4999985;28;20963;-68
2023/03/09 09:38:58;;;;;;;8.23;6.70;;;4.10;99.90;;;;;;4991174;28;21076;-68
2023/03/09 09:41:35;;;;;;;8.53;5.70;;;4.10;99.90;;;;;;4998411;28;20499;-68
2023/03/09 09:44:08;;;;;;;7.40;6.23;;;4.10;99.90;;;;;;4995799;28;20488;-68
2023/03/09 09:46:39;;;;;;;7.93;6.80;;;4.20;99.90;;;;;;4998678;28;20460;-67
2023/03/09 09:49:14;;;;;;;7.03;6.00;;;4.20;99.90;;;;;;4999132;28;20678;-68
2023/03/09 09:52:04;;;;;;;6.90;6.20;;;4.20;99.90;;;;;;4998730;28;20490;-68
2023/03/09 09:54:39;;;;;;;9.03;6.77;;;4.30;99.90;;;;;;4999307;28;20477;-67
2023/03/09 09:57:14;;;;;;;8.20;6.53;;;4.40;99.90;;;;;;4995826;28;20525;-67
2023/03/09 09:59:47;;;;;;;7.50;6.73;;;4.40;99.90;;;;;;5000105;28;20491;-67
2023/03/09 10:02:31;;;;;;;7.40;6.70;;;4.40;99.90;;;;;;4996814;28;20496;-68
2023/03/09 10:05:05;;;;;;;8.43;6.73;;;4.40;99.90;;;;;;4998882;28;20658;-68
2023/03/09 10:07:37;;;;;;;7.20;6.50;;;4.40;99.90;;;;;;4999544;28;20547;-68
2023/03/09 10:10:12;;;;;;;7.30;6.40;;;4.40;99.90;;;;;;4989720;28;20488;-67
2023/03/09 10:12:41;;;;;;;8.60;6.33;;;4.50;99.90;;;;;;5002471;28;20634;-68
2023/03/09 10:15:15;;;;;;;6.83;5.67;;;4.50;99.90;;;;;;5001552;28;20472;-68
2023/03/09 10:17:48;;;;;;;11.57;6.70;;;4.50;99.90;;;;;;5003619;28;20630;-68
2023/03/09 10:20:23;;;;;;;6.60;5.90;;;4.50;99.90;;;;;;5003701;28;20546;-68
2023/03/09 10:22:56;;;;;;;6.20;5.60;;;4.60;99.90;;;;;;5001647;28;20479;-68
2023/03/09 10:25:28;;;;;;;9.33;6.37;;;4.60;99.90;;;;;;5002844;28;20473;-68
2023/03/09 10:28:03;;;;;;;6.93;6.20;;;4.60;99.90;;;;;;5000900;28;20477;-68
2023/03/09 10:30:38;;;;;;;6.20;5.60;;;4.70;99.90;;;;;;5000932;28;20582;-68
2023/03/09 10:33:15;;;;;;;8.50;6.40;;;4.70;99.90;;;;;;5002017;28;20480;-68
2023/03/09 10:35:51;;;;;;;8.40;6.33;;;4.70;99.90;;;;;;5000464;28;20485;-68
2023/03/09 10:38:23;;;;;;;7.40;6.00;;;4.70;99.90;;;;;;5001842;28;20496;-68
2023/03/09 10:40:53;;;;;;;6.10;5.10;;;4.70;99.90;;;;;;4999927;28;20585;-68
2023/03/09 10:43:26;;;;;;;7.47;6.30;;;4.80;99.90;;;;;;5001871;28;20472;-68
2023/03/09 10:45:55;;;;;;;8.20;5.90;;;4.80;99.90;;;;;;5001932;28;20818;-68
2023/03/09 10:48:25;;;;;;;6.13;5.53;;;4.80;99.90;;;;;;5000762;28;20821;-68
2023/03/09 10:50:59;;;;;;;7.60;6.30;;;4.90;99.90;;;;;;5001398;28;20514;-68
2023/03/09 10:53:36;;;;;;;6.60;5.90;;;5.00;99.90;;;;;;5002733;28;20863;-68
2023/03/09 10:56:12;;;;;;;7.17;6.47;;;5.10;99.90;;;;;;4997791;28;20484;-68
2023/03/09 10:58:40;;;;;;;8.33;7.17;;;5.10;99.90;;;;;;5000957;28;20496;-68
2023/03/09 11:01:21;;;;;;;7.70;7.00;;;5.20;99.90;;;;;;5000361;28;20508;-69
2023/03/09 11:03:49;;;;;;;7.40;6.60;;;5.30;99.90;;;;;;5001068;28;20468;-68
2023/03/09 11:06:26;;;;;;;7.23;6.50;;;5.30;99.90;;;;;;4995810;28;20487;-68
2023/03/09 11:08:58;;;;;;;8.20;7.27;;;5.40;99.90;;;;;;5001359;28;20584;-68
2023/03/09 11:11:43;;;;;;;7.27;6.40;;;5.40;99.90;;;;;;5000992;28;20484;-69
2023/03/09 11:14:28;;;;;;;8.20;7.07;;;5.50;99.90;;;;;;4998975;28;20641;-68
2023/03/09 11:16:59;;;;;;;7.90;7.10;;;5.60;99.90;;;;;;4997580;28;20477;-69
2023/03/09 11:19:28;;;;;;;7.43;6.63;;;5.70;99.90;;;;;;5002216;28;20550;-68
2023/03/09 11:22:03;;;;;;;7.80;7.00;;;5.80;99.90;;;;;;4999319;28;20827;-68
2023/03/09 11:24:38;;;;;;;8.07;6.80;;;6.00;99.90;;;;;;4999803;28;20557;-67
2023/03/09 11:27:12;;;;;;;7.20;6.53;;;6.10;99.90;;;;;;5001180;28;20478;-67
2023/03/09 11:29:50;;;;;;;6.93;6.33;;;6.30;99.90;;;;;;5000239;28;20786;-67
2023/03/09 11:32:18;;;;;;;6.03;5.53;;;6.40;99.90;;;;;;4998633;28;20492;-67
2023/03/09 11:34:47;;;;;;;7.03;6.33;;;6.50;99.90;;;;;;5000438;28;20468;-68
2023/03/09 11:37:19;;;;;;;7.43;6.73;;;6.60;99.90;;;;;;4999526;28;20486;-67
2023/03/09 11:39:53;;;;;;;6.83;6.20;;;6.60;99.90;;;;;;5001501;28;20606;-67
2023/03/09 11:42:30;;;;;;;7.87;7.17;;;6.60;99.90;;;;;;4998542;28;20491;-68
2023/03/09 11:45:00;;;;;;;7.63;6.93;;;6.70;99.90;;;;;;5001517;28;20469;-67
2023/03/09 11:47:33;;;;;;;7.13;6.33;;;6.70;99.90;;;;;;5001832;28;20819;-67
2023/03/09 11:50:06;;;;;;;7.70;6.70;;;6.80;99.90;;;;;;4997952;28;20517;-68
2023/03/09 11:52:39;;;;;;;6.93;6.33;;;6.90;99.90;;;;;;4999293;28;20853;-67
2023/03/09 11:55:14;;;;;;;8.13;7.30;;;7.00;99.90;;;;;;4999096;28;20473;-67
2023/03/09 11:57:46;;;;;;;7.17;6.47;;;7.20;99.90;;;;;;5000571;28;20481;-67
2023/03/09 12:00:18;;;;;;;7.00;6.30;;;7.40;99.90;;;;;;4999624;28;20488;-68
2023/03/09 12:02:56;;;;;;;7.83;6.63;;;7.60;99.90;;;;;;4998751;28;20854;-68
2023/03/09 12:05:27;;;;;;;6.23;5.73;;;7.60;99.90;;;;;;5000099;28;20480;-68
2023/03/09 12:08:01;;;;;;;7.63;6.60;;;7.70;99.90;;;;;;4998476;28;20477;-67
2023/03/09 12:10:35;;;;;;;7.63;6.93;;;7.70;99.90;;;;;;4998184;28;20567;-67
2023/03/09 12:13:09;;;;;;;5.90;5.40;;;7.60;99.90;;;;;;4999653;28;20483;-67
2023/03/09 12:15:42;;;;;;;7.27;6.20;;;7.60;99.90;;;;;;4999737;28;20467;-68
2023/03/09 12:18:19;;;;;;;7.40;6.70;;;7.70;99.90;;;;;;4999516;28;20461;-67
2023/03/09 12:20:51;;;;;;;8.20;7.33;;;7.70;99.90;;;;;;5000513;28;20476;-68
2023/03/09 12:23:43;;;;;;;7.53;6.83;;;7.70;99.90;;;;;;4999562;28;20484;-67
2023/03/09 12:26:22;;;;;;;7.40;6.80;;;7.60;99.90;;;;;;4999113;28;20476;-67
2023/03/09 12:29:13;;;;;;;6.90;6.30;;;7.60;99.90;;;;;;4999832;28;20495;-67
2023/03/09 12:31:41;;;;;;;8.00;6.80;;;7.50;99.90;;;;;;4998191;28;20483;-67
2023/03/09 12:34:28;;;;;;;7.87;7.13;;;7.40;99.90;;;;;;4998300;28;20850;-67
2023/03/09 12:37:35;;;;;;;7.50;6.80;;;7.40;99.90;;;;;;4999730;28;20707;-67
2023/03/09 12:40:20;;;;;;;7.20;6.50;;;7.50;99.90;;;;;;4999566;28;20526;-67
2023/03/09 12:42:51;;;;;;;7.70;7.00;;;7.60;99.90;;;;;;4999352;28;20476;-67
2023/03/09 12:45:29;;;;;;;6.70;6.10;;;7.70;99.90;;;;;;4998965;28;20465;-67
2023/03/09 12:48:01;;;;;;;7.10;6.50;;;7.80;99.90;;;;;;4999125;28;20538;-67
2023/03/09 12:50:48;;;;;;;7.80;7.10;;;7.70;99.90;;;;;;4998448;28;20479;-68
2023/03/09 12:53:18;;;;;;;6.80;6.20;;;7.70;99.90;;;;;;4999734;28;20989;-67
2023/03/09 12:55:53;;;;;;;6.50;5.90;;;7.70;99.90;;;;;;4999015;28;20468;-67
2023/03/09 12:58:42;;;;;;;6.73;6.13;;;7.70;99.90;;;;;;4997797;28;20505;-67
2023/03/09 13:01:12;;;;;;;7.07;5.83;;;7.70;99.90;;;;;;4998561;28;20488;-67
2023/03/09 13:03:44;;;;;;;6.40;5.80;;;7.70;99.90;;;;;;4998970;28;20504;-68
2023/03/09 13:06:28;;;;;;;6.77;6.17;;;7.60;99.90;;;;;;4998169;28;20472;-67
2023/03/09 13:08:59;;;;;;;6.93;6.33;;;7.50;99.90;;;;;;4998635;28;20497;-68
2023/03/09 13:11:40;;;;;;;6.63;6.03;;;7.40;99.90;;;;;;4998326;28;20485;-68
2023/03/09 13:14:14;;;;;;;5.70;5.20;;;7.20;99.90;;;;;;4997647;28;20476;-68